Time;durP1;ratioP1;P1;durP2;ratioP2;P2;SDS_P1;SDS_P2;PMS_P1;PMS_P2;Temp;Humidity;BMP_temperature;BMP_pressure;BME280_temperature;BME280_humidity;BME280_pressure;Samples;Min_cycle;Max_cycle;Signal;HPM_P1;HPM_P2
2021/09/06 15:40:39;;;;;;;11.13;7.85;;;23.10;66.20;;;;;;5014431;27;20410;-68
2021/09/06 15:43:05;;;;;;;13.43;8.57;;;22.80;64.90;;;;;;4997999;28;20038;-68
2021/09/06 15:45:31;;;;;;;12.80;8.57;;;22.70;67.70;;;;;;5003964;28;20040;-67
2021/09/06 15:47:57;;;;;;;14.23;8.70;;;22.70;68.80;;;;;;4988284;28;73502;-67
2021/09/06 15:50:23;;;;;;;11.68;9.07;;;22.60;69.00;;;;;;4991121;28;20030;-67
2021/09/06 15:52:49;;;;;;;9.52;8.15;;;22.50;68.10;;;;;;4985943;28;20042;-67
2021/09/06 15:55:15;;;;;;;12.77;8.63;;;22.40;68.50;;;;;;4973988;28;20038;-67
2021/09/06 15:57:40;;;;;;;11.93;8.50;;;22.40;69.10;;;;;;4985924;28;20060;-68
2021/09/06 16:00:07;;;;;;;12.85;8.75;;;22.30;69.20;;;;;;4990134;28;20829;-68
2021/09/06 16:02:38;;;;;;;12.65;8.60;;;22.20;69.30;;;;;;4987739;28;20045;-68
2021/09/06 16:05:06;;;;;;;12.65;8.77;;;22.20;70.10;;;;;;4967746;28;20031;-68
2021/09/06 16:07:32;;;;;;;10.70;8.50;;;22.20;70.00;;;;;;4980906;28;20099;-67
2021/09/06 16:09:58;;;;;;;11.77;8.35;;;22.10;70.00;;;;;;4984857;28;20525;-67
2021/09/06 16:12:23;;;;;;;11.95;8.82;;;22.10;70.20;;;;;;4987300;28;20125;-68
2021/09/06 16:14:49;;;;;;;11.20;8.18;;;22.00;70.20;;;;;;4988567;28;20073;-69
2021/09/06 16:17:15;;;;;;;9.25;8.07;;;21.90;70.40;;;;;;4997276;28;20045;-67
2021/09/06 16:19:40;;;;;;;12.32;8.82;;;21.90;70.60;;;;;;4999711;28;20569;-67
2021/09/06 16:22:07;;;;;;;11.48;8.52;;;21.80;70.60;;;;;;5003390;28;20041;-67
2021/09/06 16:24:33;;;;;;;14.20;8.75;;;21.70;71.20;;;;;;4995775;28;20038;-67
2021/09/06 16:26:58;;;;;;;13.10;8.65;;;21.60;71.20;;;;;;5004131;28;20026;-67
2021/09/06 16:29:24;;;;;;;12.30;8.48;;;21.60;71.20;;;;;;5007544;28;20071;-66
2021/09/06 16:31:50;;;;;;;12.43;8.32;;;21.60;72.60;;;;;;5001140;28;20144;-68
2021/09/06 16:34:16;;;;;;;11.13;8.10;;;21.50;72.30;;;;;;4998560;28;20547;-67
2021/09/06 16:36:41;;;;;;;10.80;8.77;;;21.50;72.50;;;;;;5004582;28;20080;-67
2021/09/06 16:39:07;;;;;;;12.75;8.75;;;21.40;72.60;;;;;;4999578;28;20129;-68
2021/09/06 16:41:33;;;;;;;11.93;8.60;;;21.40;71.80;;;;;;5005280;28;20814;-68
2021/09/06 16:43:58;;;;;;;13.07;8.68;;;21.30;71.70;;;;;;5007127;28;20076;-67
2021/09/06 16:46:25;;;;;;;10.85;7.85;;;21.30;71.40;;;;;;5000603;28;20402;-68
2021/09/06 16:48:51;;;;;;;13.45;8.95;;;21.30;71.40;;;;;;5005143;28;20030;-67
2021/09/06 16:51:17;;;;;;;11.65;8.38;;;21.20;71.20;;;;;;4993907;28;20038;-67
2021/09/06 16:53:42;;;;;;;12.50;8.73;;;21.20;71.40;;;;;;4995954;28;20048;-68
2021/09/06 16:56:08;;;;;;;10.15;8.02;;;21.20;72.00;;;;;;4995448;28;20033;-67
2021/09/06 16:58:34;;;;;;;11.30;8.60;;;21.10;71.90;;;;;;4988159;28;20043;-67
2021/09/06 17:01:00;;;;;;;12.60;8.68;;;21.00;71.60;;;;;;4990908;28;20029;-68
2021/09/06 17:03:25;;;;;;;10.82;8.43;;;20.90;71.70;;;;;;4992353;28;20030;-68
2021/09/06 17:05:51;;;;;;;10.20;7.97;;;20.80;72.00;;;;;;4996184;28;20804;-68
2021/09/06 17:08:17;;;;;;;12.25;8.63;;;20.70;72.40;;;;;;4992964;28;20093;-68
2021/09/06 17:10:42;;;;;;;10.35;7.82;;;20.60;73.10;;;;;;4997161;28;20049;-68
2021/09/06 17:13:08;;;;;;;12.15;8.35;;;20.60;72.60;;;;;;4986690;28;20026;-68
2021/09/06 17:15:34;;;;;;;11.88;8.93;;;20.50;73.70;;;;;;4962161;28;76966;-67
2021/09/06 17:17:59;;;;;;;11.68;8.55;;;20.40;73.60;;;;;;4953601;28;20043;-68
2021/09/06 17:20:25;;;;;;;11.98;9.00;;;20.30;73.40;;;;;;4967579;28;20035;-68
2021/09/06 17:22:51;;;;;;;10.63;8.27;;;20.30;73.80;;;;;;4955220;28;20538;-68
2021/09/06 17:25:19;;;;;;;13.15;8.85;;;20.20;74.20;;;;;;4957640;28;20058;-69
2021/09/06 17:27:45;;;;;;;13.63;9.00;;;20.10;74.50;;;;;;4954665;28;20032;-68
2021/09/06 17:30:11;;;;;;;13.13;8.48;;;20.10;75.20;;;;;;4958765;28;20026;-69
2021/09/06 17:32:37;;;;;;;15.23;9.02;;;20.00;75.30;;;;;;4957236;28;20034;-69
2021/09/06 17:35:03;;;;;;;12.38;9.25;;;20.00;75.50;;;;;;4970332;28;20664;-68
2021/09/06 17:37:29;;;;;;;14.55;9.30;;;19.90;75.70;;;;;;4956139;28;20035;-68
2021/09/06 17:39:54;;;;;;;12.88;8.93;;;19.90;75.70;;;;;;4953711;28;20449;-68
2021/09/06 17:42:20;;;;;;;12.00;8.80;;;19.90;75.20;;;;;;4961615;28;20735;-68
2021/09/06 17:44:46;;;;;;;10.95;8.35;;;19.80;74.00;;;;;;4954011;28;20062;-68
2021/09/06 17:47:11;;;;;;;11.85;8.73;;;19.80;74.20;;;;;;4956457;28;20030;-68
2021/09/06 17:49:37;;;;;;;12.27;8.80;;;19.70;74.80;;;;;;4956590;28;20116;-68
2021/09/06 17:52:06;;;;;;;12.20;8.93;;;19.70;75.10;;;;;;4954818;28;20035;-68
2021/09/06 17:54:32;;;;;;;14.00;8.60;;;19.60;75.70;;;;;;4964893;28;20086;-68
2021/09/06 17:56:58;;;;;;;13.32;8.80;;;19.60;75.30;;;;;;4955956;28;20046;-67
2021/09/06 17:59:24;;;;;;;13.90;8.10;;;19.60;76.20;;;;;;4955777;28;20039;-67
2021/09/06 18:01:51;;;;;;;11.85;8.95;;;19.60;76.20;;;;;;4956342;28;20038;-67
2021/09/06 18:04:17;;;;;;;12.40;8.60;;;19.60;75.60;;;;;;4948741;28;20034;-67
2021/09/06 18:06:47;;;;;;;13.07;8.73;;;19.60;76.60;;;;;;4952512;28;20694;-67
2021/09/06 18:09:13;;;;;;;13.18;8.55;;;19.60;76.60;;;;;;4952911;28;20056;-68
2021/09/06 18:11:38;;;;;;;12.50;8.88;;;19.50;77.40;;;;;;4956855;28;20182;-69
2021/09/06 18:14:04;;;;;;;13.38;9.30;;;19.50;77.40;;;;;;4966217;28;20100;-67
2021/09/06 18:16:31;;;;;;;12.23;8.98;;;19.50;77.00;;;;;;4956285;28;20498;-67
2021/09/06 18:18:57;;;;;;;12.05;9.38;;;19.50;77.20;;;;;;4955934;28;20133;-67
2021/09/06 18:21:23;;;;;;;11.23;8.45;;;19.40;77.20;;;;;;4955731;28;20117;-68
2021/09/06 18:23:49;;;;;;;11.45;8.57;;;19.40;77.60;;;;;;4955545;28;20149;-67
2021/09/06 18:26:15;;;;;;;11.98;9.23;;;19.40;78.90;;;;;;4955279;28;20193;-67
2021/09/06 18:28:41;;;;;;;10.70;8.43;;;19.30;79.80;;;;;;4947139;28;20042;-67
2021/09/06 18:31:07;;;;;;;12.73;9.35;;;19.30;80.10;;;;;;4956570;28;20030;-67
2021/09/06 18:33:33;;;;;;;12.70;9.00;;;19.20;80.00;;;;;;4955498;28;20485;-68
2021/09/06 18:35:58;;;;;;;12.38;8.18;;;19.20;80.00;;;;;;4957856;28;20027;-68
2021/09/06 18:38:25;;;;;;;14.18;8.23;;;19.20;79.10;;;;;;4949980;28;20042;-67
2021/09/06 18:40:51;;;;;;;11.07;8.43;;;19.20;79.30;;;;;;4954567;28;20039;-67
2021/09/06 18:43:17;;;;;;;11.98;8.48;;;19.10;79.70;;;;;;4953973;28;20218;-68
2021/09/06 18:45:44;;;;;;;12.80;8.88;;;19.10;79.30;;;;;;4948478;28;20059;-67
2021/09/06 18:48:12;;;;;;;12.90;8.98;;;19.10;79.30;;;;;;4963842;28;20786;-67
2021/09/06 18:50:38;;;;;;;12.02;9.30;;;19.10;79.80;;;;;;4946292;28;20159;-67
2021/09/06 18:53:04;;;;;;;13.73;9.52;;;19.10;80.60;;;;;;4947229;28;20035;-67
2021/09/06 18:55:30;;;;;;;16.02;10.05;;;19.00;80.80;;;;;;4964891;28;20081;-67
2021/09/06 18:57:55;;;;;;;14.05;9.60;;;19.10;81.50;;;;;;4944040;28;20579;-68
2021/09/06 19:00:21;;;;;;;15.60;10.30;;;19.10;82.10;;;;;;4951427;28;20136;-67
2021/09/06 19:02:46;;;;;;;15.93;10.65;;;19.10;82.50;;;;;;4949532;28;20841;-67
2021/09/06 19:05:12;;;;;;;12.98;9.63;;;19.10;82.60;;;;;;4951292;28;20029;-67
2021/09/06 19:07:39;;;;;;;14.40;9.95;;;19.10;82.40;;;;;;4950967;28;20106;-68
2021/09/06 19:10:07;;;;;;;15.45;9.95;;;19.10;82.40;;;;;;4953084;28;20085;-67
2021/09/06 19:12:37;;;;;;;15.70;10.15;;;19.00;82.20;;;;;;4953630;28;20509;-67
2021/09/06 19:15:07;;;;;;;14.30;9.32;;;19.00;81.70;;;;;;4964351;28;20073;-68
2021/09/06 19:17:34;;;;;;;14.82;9.25;;;19.10;81.20;;;;;;4946656;28;20038;-68
2021/09/06 19:20:01;;;;;;;13.30;9.50;;;19.00;80.80;;;;;;4954176;28;20073;-67
2021/09/06 19:22:27;;;;;;;14.32;9.52;;;19.00;80.80;;;;;;4949689;28;20820;-67
2021/09/06 19:24:53;;;;;;;16.90;9.65;;;19.00;80.60;;;;;;4951867;28;20019;-67
2021/09/06 19:27:19;;;;;;;14.00;10.00;;;19.00;80.70;;;;;;4947551;28;20034;-67
2021/09/06 19:29:46;;;;;;;15.48;10.07;;;19.00;81.60;;;;;;4947094;28;20062;-67
2021/09/06 19:32:14;;;;;;;13.88;9.60;;;19.00;82.50;;;;;;4950408;28;20760;-68
2021/09/06 19:34:42;;;;;;;14.75;9.98;;;19.00;82.70;;;;;;4948248;28;20038;-67
2021/09/06 19:37:09;;;;;;;17.38;10.43;;;18.90;83.00;;;;;;4955453;28;20414;-68
2021/09/06 19:39:35;;;;;;;15.25;10.07;;;18.90;82.60;;;;;;4956857;28;20062;-68
2021/09/06 19:42:03;;;;;;;12.77;9.27;;;18.90;82.80;;;;;;4954291;28;20050;-68
2021/09/06 19:44:29;;;;;;;14.43;9.63;;;18.90;83.20;;;;;;4951860;28;20062;-68
2021/09/06 19:46:54;;;;;;;14.30;9.25;;;18.80;83.50;;;;;;4955919;28;20074;-68
2021/09/06 19:49:20;;;;;;;12.98;9.40;;;18.80;83.70;;;;;;4948069;28;20071;-68
2021/09/06 19:51:46;;;;;;;13.80;9.48;;;18.90;83.60;;;;;;4951716;28;20042;-70
2021/09/06 19:54:12;;;;;;;15.55;9.50;;;18.80;83.40;;;;;;4942405;28;20606;-68
2021/09/06 19:56:40;;;;;;;16.13;9.77;;;18.80;83.40;;;;;;4956836;28;20252;-68
2021/09/06 19:59:08;;;;;;;12.30;9.45;;;18.80;83.50;;;;;;4947762;28;20030;-68
2021/09/06 20:01:38;;;;;;;14.38;9.50;;;18.70;83.70;;;;;;4950234;28;20118;-68
2021/09/06 20:04:04;;;;;;;13.52;9.57;;;18.70;84.00;;;;;;4968116;28;20038;-68
2021/09/06 20:06:31;;;;;;;13.07;9.45;;;18.70;84.20;;;;;;4944595;28;20045;-68
2021/09/06 20:08:57;;;;;;;16.25;10.07;;;18.70;84.30;;;;;;4956755;28;20041;-68
2021/09/06 20:11:23;;;;;;;14.32;10.40;;;18.60;84.30;;;;;;4956800;28;20034;-68
2021/09/06 20:13:49;;;;;;;13.18;9.60;;;18.60;84.40;;;;;;4949086;28;20692;-68
2021/09/06 20:16:16;;;;;;;12.90;9.60;;;18.60;84.60;;;;;;4965207;28;20058;-68
2021/09/06 20:18:42;;;;;;;13.55;9.45;;;18.50;84.60;;;;;;4946726;28;20027;-68
2021/09/06 20:21:10;;;;;;;18.55;11.07;;;18.50;84.80;;;;;;4947968;28;20043;-68
2021/09/06 20:23:36;;;;;;;12.57;9.35;;;18.40;85.30;;;;;;4947326;28;20034;-68
2021/09/06 20:26:02;;;;;;;14.80;10.43;;;18.40;85.20;;;;;;4945534;28;20086;-67
2021/09/06 20:28:28;;;;;;;17.58;9.68;;;18.40;85.10;;;;;;4950974;28;20039;-67
2021/09/06 20:30:53;;;;;;;14.68;9.48;;;18.40;85.60;;;;;;4953838;28;20122;-68
2021/09/06 20:33:19;;;;;;;14.77;9.93;;;18.30;85.50;;;;;;4956137;28;20255;-68
2021/09/06 20:35:45;;;;;;;12.70;9.52;;;18.40;85.70;;;;;;4950806;28;20042;-68
2021/09/06 20:38:11;;;;;;;13.68;8.98;;;18.30;86.60;;;;;;4950437;28;20532;-68
2021/09/06 20:40:36;;;;;;;14.30;9.68;;;18.30;86.30;;;;;;4952307;28;20046;-68
2021/09/06 20:43:03;;;;;;;13.70;9.88;;;18.30;86.70;;;;;;4966482;28;20038;-68
2021/09/06 20:45:28;;;;;;;14.15;9.30;;;18.30;86.70;;;;;;4952579;28;20042;-68
2021/09/06 20:47:54;;;;;;;15.40;9.20;;;18.30;86.60;;;;;;4954507;28;20027;-68
2021/09/06 20:50:20;;;;;;;15.60;9.73;;;18.30;86.50;;;;;;4954374;28;20828;-68
2021/09/06 20:52:46;;;;;;;13.13;9.48;;;18.30;86.30;;;;;;4949801;28;20050;-68
2021/09/06 20:55:14;;;;;;;14.52;9.43;;;18.30;86.40;;;;;;4966424;28;20035;-68
2021/09/06 20:57:40;;;;;;;13.57;9.23;;;18.20;86.40;;;;;;4949935;28;20054;-67
2021/09/06 21:00:06;;;;;;;14.73;8.48;;;18.20;86.60;;;;;;4950286;28;20058;-68
2021/09/06 21:02:32;;;;;;;15.55;10.32;;;18.20;86.80;;;;;;4951095;28;20031;-68
2021/09/06 21:04:58;;;;;;;14.25;9.60;;;18.20;87.10;;;;;;4951320;28;20202;-68
2021/09/06 21:07:24;;;;;;;12.10;9.10;;;18.20;86.80;;;;;;4952650;28;20527;-68
2021/09/06 21:09:51;;;;;;;12.60;9.57;;;18.20;86.70;;;;;;4955289;28;20490;-68
2021/09/06 21:12:17;;;;;;;14.70;10.43;;;18.20;86.60;;;;;;4953989;28;20043;-68
2021/09/06 21:14:43;;;;;;;13.63;10.02;;;18.20;86.60;;;;;;4968892;28;20035;-68
2021/09/06 21:17:09;;;;;;;15.30;9.65;;;18.20;86.60;;;;;;4951062;28;20038;-68
2021/09/06 21:19:36;;;;;;;15.20;9.70;;;18.20;86.50;;;;;;4955974;28;20090;-68
2021/09/06 21:22:02;;;;;;;16.73;10.23;;;18.10;86.50;;;;;;4956125;28;20446;-68
2021/09/06 21:24:28;;;;;;;12.65;9.70;;;18.10;87.10;;;;;;4957566;28;20058;-68
2021/09/06 21:26:56;;;;;;;15.88;10.30;;;18.10;87.10;;;;;;4957387;28;20486;-68
2021/09/06 21:29:22;;;;;;;15.20;9.85;;;18.10;86.80;;;;;;4954529;28;20043;-68
2021/09/06 21:31:48;;;;;;;12.57;10.05;;;18.10;86.60;;;;;;4950746;28;20054;-67
2021/09/06 21:34:13;;;;;;;13.98;9.82;;;18.10;86.30;;;;;;4968112;28;20042;-68
2021/09/06 21:36:40;;;;;;;14.70;9.80;;;18.10;86.00;;;;;;4950004;28;20066;-68
2021/09/06 21:39:06;;;;;;;13.48;9.65;;;18.10;85.90;;;;;;4961187;28;20483;-68
2021/09/06 21:41:31;;;;;;;14.52;9.70;;;18.00;85.20;;;;;;4953784;28;20050;-68
2021/09/06 21:43:57;;;;;;;12.63;9.25;;;18.00;85.00;;;;;;4953321;28;20058;-68
2021/09/06 21:46:23;;;;;;;13.77;9.77;;;18.00;84.80;;;;;;4955237;28;20415;-68
2021/09/06 21:48:49;;;;;;;13.65;9.63;;;18.00;84.80;;;;;;4948900;28;20038;-68
2021/09/06 21:51:14;;;;;;;13.75;9.63;;;17.90;84.70;;;;;;4954182;28;20451;-68
2021/09/06 21:53:40;;;;;;;14.55;9.55;;;18.00;84.80;;;;;;4964079;28;20486;-68
2021/09/06 21:56:06;;;;;;;13.13;9.48;;;17.90;84.90;;;;;;4953143;28;20051;-68
2021/09/06 21:58:32;;;;;;;13.23;9.60;;;17.90;84.90;;;;;;4949169;28;20045;-68
2021/09/06 22:00:58;;;;;;;16.63;9.50;;;17.90;84.90;;;;;;4949386;28;20351;-68
2021/09/06 22:03:24;;;;;;;17.40;9.93;;;17.90;84.90;;;;;;4947871;28;20038;-68
2021/09/06 22:05:49;;;;;;;13.20;9.73;;;17.80;84.80;;;;;;4951258;28;20027;-68
2021/09/06 22:08:15;;;;;;;14.95;10.20;;;17.90;85.00;;;;;;4959446;28;20037;-68
2021/09/06 22:10:41;;;;;;;13.52;9.77;;;17.90;85.00;;;;;;4948416;28;20039;-68
2021/09/06 22:13:06;;;;;;;14.15;10.43;;;17.80;85.10;;;;;;4950074;28;20038;-68
2021/09/06 22:15:32;;;;;;;15.52;10.18;;;17.80;85.30;;;;;;4951754;28;20039;-68
2021/09/06 22:17:58;;;;;;;15.80;9.40;;;17.80;85.70;;;;;;4954821;28;20047;-68
2021/09/06 22:20:24;;;;;;;16.38;9.70;;;17.80;85.70;;;;;;4949454;28;20660;-68
2021/09/06 22:22:49;;;;;;;14.93;9.75;;;17.80;85.70;;;;;;4953629;28;20031;-68
2021/09/06 22:25:15;;;;;;;15.73;9.25;;;17.80;85.30;;;;;;4951330;28;20039;-68
2021/09/06 22:27:41;;;;;;;13.05;9.05;;;17.80;85.30;;;;;;4947351;28;20031;-68
2021/09/06 22:30:12;;;;;;;15.43;10.02;;;17.80;85.30;;;;;;4946836;28;20125;-68
2021/09/06 22:32:40;;;;;;;14.27;9.55;;;17.80;85.10;;;;;;4945873;28;20035;-68
2021/09/06 22:35:08;;;;;;;12.05;8.52;;;17.80;84.90;;;;;;4948300;28;20023;-70
2021/09/06 22:37:33;;;;;;;16.27;9.93;;;17.80;85.10;;;;;;4948819;28;20039;-68
2021/09/06 22:39:59;;;;;;;11.52;9.02;;;17.80;85.10;;;;;;4947776;28;20046;-68
2021/09/06 22:42:25;;;;;;;14.55;9.93;;;17.70;85.70;;;;;;4948672;28;20027;-68
2021/09/06 22:44:52;;;;;;;14.05;9.68;;;17.70;86.00;;;;;;4950447;28;20038;-68
2021/09/06 22:47:17;;;;;;;14.30;9.55;;;17.70;85.90;;;;;;4950699;28;20406;-68
2021/09/06 22:49:43;;;;;;;14.88;10.45;;;17.70;85.90;;;;;;4941033;28;20042;-67
2021/09/06 22:52:09;;;;;;;13.57;9.70;;;17.70;86.00;;;;;;4948827;28;20474;-67
2021/09/06 22:54:35;;;;;;;13.32;9.10;;;17.70;85.60;;;;;;4950794;28;20039;-68
2021/09/06 22:57:02;;;;;;;14.25;10.40;;;17.70;85.20;;;;;;4952145;28;20386;-68
2021/09/06 22:59:28;;;;;;;13.95;9.85;;;17.70;85.50;;;;;;4952316;28;20043;-67
2021/09/06 23:01:54;;;;;;;16.85;10.10;;;17.70;85.70;;;;;;4952614;28;20170;-67
2021/09/06 23:04:22;;;;;;;12.40;9.63;;;17.70;85.50;;;;;;4952206;28;20031;-67
2021/09/06 23:06:48;;;;;;;13.23;8.75;;;17.70;85.60;;;;;;4966202;28;20035;-68
2021/09/06 23:09:15;;;;;;;15.63;9.73;;;17.60;85.40;;;;;;4949205;28;20031;-67
2021/09/06 23:11:41;;;;;;;15.40;10.18;;;17.60;85.20;;;;;;4950514;28;20078;-67
2021/09/06 23:14:09;;;;;;;13.18;9.82;;;17.60;85.00;;;;;;4954253;28;20691;-67
2021/09/06 23:16:37;;;;;;;14.85;9.75;;;17.60;85.10;;;;;;4949955;28;20042;-67
2021/09/06 23:19:04;;;;;;;14.68;9.70;;;17.60;85.10;;;;;;4946356;28;20046;-68
2021/09/06 23:21:30;;;;;;;16.48;9.75;;;17.60;85.00;;;;;;4950150;28;20059;-68
2021/09/06 23:23:56;;;;;;;14.25;10.13;;;17.60;84.90;;;;;;4952732;28;20121;-67
2021/09/06 23:26:21;;;;;;;11.45;9.02;;;17.60;84.80;;;;;;4947165;28;20027;-67
2021/09/06 23:28:47;;;;;;;13.52;9.52;;;17.60;84.90;;;;;;4950231;28;20043;-67
2021/09/06 23:31:13;;;;;;;11.25;9.05;;;17.60;85.10;;;;;;4953217;28;20038;-66
2021/09/06 23:33:38;;;;;;;12.57;8.93;;;17.60;85.30;;;;;;4947092;28;20027;-67
2021/09/06 23:36:04;;;;;;;13.07;9.57;;;17.60;85.60;;;;;;4950370;28;20137;-67
2021/09/06 23:38:30;;;;;;;13.43;9.50;;;17.50;85.90;;;;;;4948846;28;20252;-67
2021/09/06 23:40:56;;;;;;;12.80;9.35;;;17.60;85.70;;;;;;4949610;28;20038;-67
2021/09/06 23:43:22;;;;;;;14.77;9.55;;;17.60;85.90;;;;;;4949263;28;20042;-67
2021/09/06 23:45:47;;;;;;;13.57;10.00;;;17.60;86.00;;;;;;4952954;28;20086;-67
2021/09/06 23:48:13;;;;;;;12.40;8.95;;;17.60;86.10;;;;;;4952186;28;20026;-67
2021/09/06 23:50:39;;;;;;;13.90;10.27;;;17.60;86.20;;;;;;4952418;28;20034;-67
2021/09/06 23:53:05;;;;;;;14.50;10.45;;;17.60;86.20;;;;;;4943574;28;20049;-66
2021/09/06 23:55:31;;;;;;;13.02;9.32;;;17.60;86.30;;;;;;4952005;28;20039;-66
2021/09/06 23:57:57;;;;;;;12.63;9.32;;;17.60;86.00;;;;;;4963066;28;20910;-67
